San Francisco, California
Traffic Map
Current Weather Conditions
San Francisco, California
Clear
Clear
12°
Feels Like: 12°
Wind Chill: 12° Ceiling: Unl
Heat Index: 12° Visibility: 10mi
Dew Point: Wind: 9mph
Humidity: 75% Direction: 290° (WNW)
Pressure: 30.08in Gusts: 0mph
Raw Report DataKSFO 210856Z 29008KT 10SM CLR 12/08 A3008 RMK AO2 SLP186 T01220078 58001
Traffic Incident Summary
Active as of:
Severity:
Category:
InformationThere was an issue retrieving the traffic information for this location. Please try a different location or try again shortly.
Advertisements
At Last! Intellicast now available for iPhone and Android